Terminal Aerodrome Forecast
Issued by NWS

Home | Current Version | Previous Version | Text Only | Print | Product List | Glossary On
Versions: 1 2 3 4 5 6 7 8 9 10 11 12 13 14 15 16
428
FTUS43 KAPX 251408 AAA
TAFTVC
TAF AMD
KTVC 251408Z 2514/2612 17006KT P6SM BKN060 BKN090
     FM251800 16010G18KT P6SM BKN050 BKN090
     FM260000 15014G22KT P6SM SHRA SCT035 OVC050 WS020/17035KT
     FM260400 18011G19KT 6SM SHRA BR BKN025 OVC030 WS020/17035KT
     FM260600 19009KT P6SM VCSH BKN012 OVC030 WS020/17035KT
     FM260900 20008KT P6SM BKN015 OVC025
     FM261100 23010G19KT P6SM BKN015 OVC025=

USA.gov is the U.S. government's official web portal to all federal, state and local government web resources and services.